LIRELIRH

Guest
Details From LIRE - Pratica Di Mare
To LIRH - Frosinone
Flight Number -
Tags generated
Created
Modified
Stats Distance 41 nm / 75 km
Max Altitude 3,900 ft / 1,189 m
Waypoints 3
Social Downloads 1
Likes 0
Share VATSIM

Download

Looking for another format? Having issues loading an existing format? Contact us
Advertisement - Login to hide

Notes

Basic altitude profile: - Ascent Rate: 1000ft/min - Ascent Speed: 120kts - Cruise Altitude: 8000ft - Cruise Speed: 420kts - Descent Rate: 1000ft/min - Descent Speed: 250kts Options: - Use NATs: yes - Use PACOTS: yes - Use low airways: yes - Use high airways: no

Route

LIRE LAT LIRH

ID Type Via Altitude Latitude Longitude Leg Dist Tot Dist Heading (true) Name
O LIRE APT - 0 ft / 0 m 41.65452˚ 12.44518˚ - 0 nm - Pratica Di Mare
LAT VOR - 3,900 ft / 1,189 m 41.54110˚ 12.91806˚ 22 nm 22 nm 108° / 108° LATINA VOR-DME
O LIRH APT - 0 ft / 0 m 41.64583˚ 13.30000˚ 18 nm 40 nm 70° / 70° Frosinone

Altitude Profile

Advertisement - Login to hide

LIRE

Details ICAO LIRE
Name Pratica Di Mare
Region Italy
Timezone Europe/Rome (UTC+2.0)
Stats Elevation 39 ft / 12 m (AMSL)
Location 41.654524° 12.445184°
Runways 2
Magnetic Variation 3.069° E

METAR

LIRE 221555Z 17008KT 9999 FEW030 22/18 Q1014 RMK BKN SCT200 VIS MIN 9999 WIND THR13 18006KT WIND THR31 17006KT BLU

Decode

TAF

Not found

Departure Runways

ID Width Length Bearing (true) Bearing (mag) Surface Threshold Offset Overrun Length
13 148 ft / 45 m 8,340 ft / 2,542 m 130.05° 126.98° Asphalt 500 ft / 152 m 0 ft / 0 m
13L 98 ft / 30 m 8,135 ft / 2,479 m 130.02° 126.95° Asphalt 430 ft / 131 m 0 ft / 0 m
31 148 ft / 45 m 8,340 ft / 2,542 m 310.07° 307.00° Asphalt 350 ft / 107 m 700 ft / 213 m
31R 98 ft / 30 m 8,135 ft / 2,479 m 310.03° 306.96° Asphalt 430 ft / 131 m 0 ft / 0 m

LIRH

Details ICAO LIRH
Name Frosinone
Region Italy
Timezone Europe/Rome (UTC+2.0)
Stats Elevation 645 ft / 197 m (AMSL)
Location 41.645832° 13.300000°
Runways 1
Magnetic Variation 3.223° E

METAR

LIRH 221555Z 12003KT 7000 SCT030 19/15 Q1014 RETS

Decode

TAF

Not found

Destination Runways

ID Width Length Bearing (true) Bearing (mag) Surface Threshold Offset Overrun Length
16 131 ft / 40 m 4,698 ft / 1,432 m 162.00° 158.78° Dirt 0 ft / 0 m 0 ft / 0 m
34 131 ft / 40 m 4,698 ft / 1,432 m 342.00° 338.78° Dirt 0 ft / 0 m 0 ft / 0 m